Time;durP1;ratioP1;P1;durP2;ratioP2;P2;SDS_P1;SDS_P2;PMS_P1;PMS_P2;Temp;Humidity;BMP_temperature;BMP_pressure;BME280_temperature;BME280_humidity;BME280_pressure;Samples;Min_cycle;Max_cycle;Signal;HPM_P1;HPM_P2
2022/02/01 00:02:04;;;;;;;9.23;3.28;;;;;;;21.18;35.51;101848.47;5016140;28;20438;-61
2022/02/01 00:05:03;;;;;;;10.70;2.90;;;;;;;21.11;35.78;101835.91;5017796;28;20395;-61
2022/02/01 00:15:01;;;;;;;12.75;3.38;;;;;;;20.98;35.82;101810.88;5017954;28;20063;-61
2022/02/01 00:20:08;;;;;;;9.20;2.80;;;;;;;20.93;35.59;101789.38;5018570;28;20395;-61
2022/02/01 00:33:49;;;;;;;8.77;2.90;;;;;;;20.77;35.80;101873.06;5019599;28;20052;-61
2022/02/01 00:36:28;;;;;;;7.20;2.42;;;;;;;20.67;36.03;101832.69;5028541;28;20885;-61
2022/02/01 00:39:14;;;;;;;8.93;2.47;;;;;;;20.68;35.99;101805.22;5019804;28;20045;-61
2022/02/01 00:41:47;;;;;;;6.78;2.35;;;;;;;20.65;35.95;101807.38;5026062;28;20502;-61
2022/02/01 00:44:14;;;;;;;8.48;2.63;;;;;;;20.61;36.12;101795.44;5017502;28;20553;-61
2022/02/01 00:46:39;;;;;;;12.25;2.97;;;;;;;20.57;36.08;101786.16;5028954;28;20452;-61
2022/02/01 00:49:05;;;;;;;6.78;2.15;;;;;;;20.60;35.95;101802.53;5019387;28;20049;-61
2022/02/01 00:51:30;;;;;;;6.65;3.30;;;;;;;20.50;36.13;101805.34;5021424;28;20045;-61
2022/02/01 00:53:56;;;;;;;10.00;2.53;;;;;;;20.52;36.01;101818.41;5016693;28;20065;-61
2022/02/01 00:56:22;;;;;;;8.55;2.35;;;;;;;20.47;36.09;101818.06;5024038;28;20079;-61
2022/02/01 00:58:47;;;;;;;8.07;2.40;;;;;;;20.47;36.13;101840.06;5020297;28;20106;-61
2022/02/01 01:01:14;;;;;;;10.57;2.38;;;;;;;20.47;36.04;101852.47;5019046;28;20045;-61
2022/02/01 01:03:40;;;;;;;7.05;2.00;;;;;;;20.42;36.13;101846.78;5027676;28;20068;-61
2022/02/01 01:06:06;;;;;;;9.23;2.85;;;;;;;20.40;36.27;101846.09;5017916;28;20025;-61
2022/02/01 01:08:31;;;;;;;7.22;2.30;;;;;;;20.41;36.28;101837.22;5021657;28;20045;-61
2022/02/01 01:10:57;;;;;;;6.38;2.25;;;;;;;20.40;36.05;101819.66;5018929;28;20049;-62
2022/02/01 01:54:03;;;;;;;9.35;3.22;;;;;;;20.07;36.53;101781.63;5009912;28;20044;-61
2022/02/01 01:56:31;;;;;;;9.07;2.20;;;;;;;20.02;36.49;101784.75;5015152;28;20503;-61
2022/02/01 01:58:57;;;;;;;8.57;2.45;;;;;;;20.01;36.48;101791.03;5016620;28;20442;-61
2022/02/01 02:01:23;;;;;;;7.35;2.30;;;;;;;20.00;36.35;101793.84;5020616;28;20033;-61
2022/02/01 02:03:49;;;;;;;7.68;2.08;;;;;;;19.98;36.10;101775.50;5018510;28;20544;-61
2022/02/01 02:06:18;;;;;;;6.78;2.65;;;;;;;19.99;36.40;101771.03;5021865;28;20476;-61
2022/02/01 02:08:48;;;;;;;8.07;2.70;;;;;;;19.98;36.44;101764.09;5019777;28;20395;-61
2022/02/01 02:11:21;;;;;;;5.23;2.00;;;;;;;19.97;36.55;101763.28;5018850;28;20041;-61
2022/02/01 02:16:35;;;;;;;6.03;1.65;;;;;;;19.86;36.49;101734.47;5016641;28;20103;-61
2022/02/01 02:19:03;;;;;;;6.53;2.03;;;;;;;19.87;36.58;101730.81;5019431;28;20045;-61
2022/02/01 02:21:28;;;;;;;6.25;2.53;;;;;;;19.88;36.38;101733.31;5017586;28;20465;-61
2022/02/01 02:23:54;;;;;;;5.28;2.10;;;;;;;19.86;36.50;101737.94;5017479;28;20048;-61
2022/02/01 02:26:19;;;;;;;6.05;2.28;;;;;;;19.85;36.66;101740.72;5012868;28;20041;-61
2022/02/01 02:28:46;;;;;;;5.20;2.10;;;;;;;19.85;36.43;101746.00;5020233;28;20092;-61
2022/02/01 02:31:12;;;;;;;7.97;2.08;;;;;;;19.83;36.43;101735.59;5015230;28;20048;-61
2022/02/01 02:33:39;;;;;;;7.35;2.05;;;;;;;19.83;36.66;101738.25;5021378;28;20041;-61
2022/02/01 02:36:12;;;;;;;8.10;2.85;;;;;;;19.73;36.54;101734.06;5017243;28;20071;-61
2022/02/01 02:46:41;;;;;;;7.68;2.00;;;;;;;19.72;36.77;101724.47;5027952;28;20449;-61
2022/02/01 02:49:16;;;;;;;9.55;2.55;;;;;;;19.75;36.64;101724.16;5015969;28;20088;-61
2022/02/01 02:51:42;;;;;;;5.90;1.92;;;;;;;19.76;36.55;101731.94;5022685;28;20028;-61
2022/02/01 02:54:13;;;;;;;7.63;2.03;;;;;;;19.73;36.73;101728.75;5021640;28;20037;-63
2022/02/01 02:56:43;;;;;;;4.57;1.88;;;;;;;19.71;36.68;101731.56;5018368;28;20067;-63
2022/02/01 02:59:09;;;;;;;9.15;1.83;;;;;;;19.70;36.73;101727.28;5016462;28;20119;-62
2022/02/01 03:01:34;;;;;;;3.75;2.03;;;;;;;19.68;36.71;101737.16;5024237;28;20071;-62
2022/02/01 03:04:00;;;;;;;6.90;2.25;;;;;;;19.68;36.67;101718.66;5014293;28;20430;-62
2022/02/01 03:06:25;;;;;;;7.13;1.70;;;;;;;19.66;36.73;101720.66;5024518;28;20045;-62
2022/02/01 03:08:51;;;;;;;6.82;2.10;;;;;;;19.67;36.67;101724.13;5014329;28;20053;-62
2022/02/01 03:11:16;;;;;;;5.05;1.90;;;;;;;19.68;36.59;101723.13;5019458;28;20438;-62
2022/02/01 03:13:49;;;;;;;7.53;2.25;;;;;;;19.56;36.76;101718.09;5017588;28;20057;-62
2022/02/01 03:21:34;;;;;;;6.95;2.03;;;;;;;19.53;36.69;101668.19;5024530;28;20524;-61
2022/02/01 03:23:59;;;;;;;5.22;1.98;;;;;;;19.52;36.73;101669.19;5017049;28;20033;-62
2022/02/01 03:26:25;;;;;;;6.20;1.85;;;;;;;19.48;36.71;101662.56;5023115;28;20100;-62
2022/02/01 03:28:50;;;;;;;5.07;1.88;;;;;;;19.51;36.71;101672.81;5013715;28;20115;-61
2022/02/01 03:31:17;;;;;;;6.75;2.47;;;;;;;19.50;36.61;101657.94;5018034;28;20487;-62
2022/02/01 03:33:46;;;;;;;6.82;1.60;;;;;;;19.51;36.58;101635.81;5025673;28;20042;-62
2022/02/01 03:36:12;;;;;;;6.97;2.08;;;;;;;19.49;36.72;101631.69;5017092;28;20450;-62
2022/02/01 03:38:37;;;;;;;5.25;1.58;;;;;;;19.52;36.71;101650.69;5022653;28;20045;-62
2022/02/01 03:41:04;;;;;;;7.57;1.65;;;;;;;19.45;36.79;101638.28;5015150;28;20052;-62
2022/02/01 03:43:29;;;;;;;7.00;1.90;;;;;;;19.49;36.87;101636.97;5024658;28;20037;-62
2022/02/01 03:45:55;;;;;;;4.63;2.22;;;;;;;19.46;36.86;101630.19;5020128;28;20078;-62
2022/02/01 03:48:20;;;;;;;6.45;1.75;;;;;;;19.43;36.83;101637.63;5017042;28;20038;-62
2022/02/01 03:50:46;;;;;;;6.47;1.90;;;;;;;19.44;36.81;101641.91;5012717;28;20092;-61
2022/02/01 03:53:13;;;;;;;7.20;1.98;;;;;;;19.47;36.55;101639.78;5019042;28;20060;-61
2022/02/01 03:55:38;;;;;;;4.28;1.85;;;;;;;19.41;36.84;101639.59;5026107;28;20116;-62
2022/02/01 03:58:04;;;;;;;7.05;1.85;;;;;;;19.42;36.79;101614.81;5019727;28;20475;-62
2022/02/01 04:00:29;;;;;;;3.35;2.03;;;;;;;19.46;36.83;101621.44;5028289;28;20050;-61
2022/02/01 04:02:55;;;;;;;5.93;2.03;;;;;;;19.46;36.72;101632.84;5021172;28;20033;-62
2022/02/01 04:05:21;;;;;;;6.63;2.03;;;;;;;19.43;36.83;101627.88;5017139;28;20495;-62
2022/02/01 04:07:48;;;;;;;4.60;1.85;;;;;;;19.40;36.88;101624.72;5016615;28;20124;-62
2022/02/01 04:10:15;;;;;;;12.23;1.40;;;;;;;19.38;36.92;101619.56;5022637;28;20044;-62
2022/02/01 04:12:41;;;;;;;4.10;1.63;;;;;;;19.37;37.01;101591.50;5021190;28;20517;-61
2022/02/01 04:15:08;;;;;;;6.10;1.52;;;;;;;19.39;36.72;101612.47;5026293;28;20144;-62
2022/02/01 04:17:34;;;;;;;6.63;2.00;;;;;;;19.40;36.92;101627.38;5017574;28;20402;-62
2022/02/01 04:20:01;;;;;;;2.92;1.10;;;;;;;19.35;36.90;101619.06;5023418;28;20032;-62
2022/02/01 04:22:26;;;;;;;8.55;1.92;;;;;;;19.37;36.78;101601.25;5019342;28;20223;-62
2022/02/01 04:24:52;;;;;;;4.68;1.70;;;;;;;19.27;36.83;101601.38;5021983;28;20072;-61
2022/02/01 04:29:52;;;;;;;3.55;1.38;;;;;;;19.37;36.69;101598.59;5015862;28;20554;-62
2022/02/01 04:32:18;;;;;;;6.05;1.85;;;;;;;19.28;37.01;101587.19;5041927;28;20037;-62
2022/02/01 04:34:47;;;;;;;2.83;1.20;;;;;;;19.27;36.82;101599.56;5020778;28;20395;-61
2022/02/01 04:37:12;;;;;;;3.60;1.58;;;;;;;19.32;36.87;101607.84;5023992;28;20098;-61
2022/02/01 04:39:38;;;;;;;4.43;1.70;;;;;;;19.25;36.80;101609.47;5025690;28;20042;-61
2022/02/01 04:42:03;;;;;;;4.20;1.63;;;;;;;19.31;36.79;101606.19;5022279;28;20045;-61
2022/02/01 04:44:30;;;;;;;4.55;2.00;;;;;;;19.29;36.93;101594.13;5024703;28;20040;-61
2022/02/01 04:46:56;;;;;;;6.47;1.90;;;;;;;19.23;36.96;101582.38;5018947;28;20037;-61
2022/02/01 04:49:21;;;;;;;5.72;1.40;;;;;;;19.29;36.86;101586.19;5024011;28;20538;-62
2022/02/01 04:51:47;;;;;;;4.38;1.70;;;;;;;19.28;36.84;101587.19;5020061;28;20041;-61
2022/02/01 04:54:12;;;;;;;5.25;1.70;;;;;;;19.27;36.91;101570.50;5021802;28;20034;-61
2022/02/01 04:56:38;;;;;;;5.00;1.48;;;;;;;19.22;37.02;101559.63;5017014;28;20053;-61
2022/02/01 04:59:03;;;;;;;6.38;1.70;;;;;;;19.25;37.07;101566.38;5020019;28;20080;-61
2022/02/01 05:01:38;;;;;;;2.70;1.10;;;;;;;19.20;37.03;101545.72;5019926;28;20080;-61
2022/02/01 05:04:07;;;;;;;4.55;1.50;;;;;;;19.24;37.08;101546.25;5021208;28;20038;-61
2022/02/01 05:06:34;;;;;;;3.85;1.55;;;;;;;19.20;36.93;101534.31;5015894;28;20501;-61
2022/02/01 05:08:59;;;;;;;4.82;1.75;;;;;;;19.22;36.87;101535.03;5021783;28;20506;-61
2022/02/01 05:11:25;;;;;;;3.72;1.45;;;;;;;19.18;37.05;101537.13;5016169;28;20042;-61
2022/02/01 05:16:20;;;;;;;7.43;1.70;;;;;;;19.21;36.94;101554.47;5024299;28;20045;-62
2022/02/01 05:18:48;;;;;;;;;;;;;;;19.24;37.01;101527.75;5019724;28;20049;-61
2022/02/01 05:21:26;;;;;;;3.25;1.20;;;;;;;19.21;36.95;101518.34;5023241;28;20429;-62
2022/02/01 05:23:53;;;;;;;2.58;1.45;;;;;;;19.24;36.95;101546.25;5019338;28;20045;-61
2022/02/01 05:26:20;;;;;;;4.20;1.73;;;;;;;19.23;36.85;101526.94;5024873;28;21888;-61
2022/02/01 05:28:46;;;;;;;3.20;1.20;;;;;;;19.21;37.05;101507.78;5018542;28;20490;-61
2022/02/01 05:31:11;;;;;;;2.15;1.25;;;;;;;19.24;36.99;101499.53;5019100;28;20117;-61
2022/02/01 05:33:37;;;;;;;4.38;1.63;;;;;;;19.21;36.87;101491.09;5023218;28;20123;-61
2022/02/01 05:36:05;;;;;;;5.97;1.75;;;;;;;19.18;37.03;101497.53;5019167;28;20435;-61
2022/02/01 05:38:31;;;;;;;3.83;1.63;;;;;;;19.11;37.09;101477.22;5016146;28;20042;-61
2022/02/01 05:40:57;;;;;;;5.10;1.60;;;;;;;19.21;37.18;101504.28;5021009;28;20095;-62
2022/02/01 05:43:26;;;;;;;5.10;1.50;;;;;;;19.19;37.05;101508.91;5018549;28;20112;-61
2022/02/01 05:45:52;;;;;;;2.22;1.25;;;;;;;19.21;37.12;101496.38;5017648;28;20048;-62
2022/02/01 05:48:19;;;;;;;4.53;1.40;;;;;;;19.17;37.14;101480.03;5024165;28;20235;-61
2022/02/01 05:50:49;;;;;;;4.97;1.73;;;;;;;19.35;36.92;101489.66;5015855;28;20553;-61
2022/02/01 05:53:15;;;;;;;5.90;1.63;;;;;;;19.60;36.80;101502.00;5022590;28;20053;-61
2022/02/01 05:55:41;;;;;;;4.10;1.20;;;;;;;19.90;36.60;101501.38;5019740;28;20081;-61
2022/02/01 05:58:07;;;;;;;2.42;1.33;;;;;;;20.28;36.08;101498.22;5020804;28;20136;-61
2022/02/01 06:00:33;;;;;;;5.28;1.25;;;;;;;20.59;35.72;101491.28;5014576;28;20491;-61
2022/02/01 06:03:00;;;;;;;2.95;1.08;;;;;;;20.88;35.22;101472.19;5022450;28;20033;-61
2022/02/01 06:05:27;;;;;;;1.25;1.10;;;;;;;20.99;35.33;101484.22;5016877;28;20045;-60
2022/02/01 06:07:52;;;;;;;7.03;1.70;;;;;;;20.95;35.21;101486.38;5022762;28;20124;-61
2022/02/01 06:10:18;;;;;;;4.20;1.48;;;;;;;20.90;35.38;101482.59;5016134;28;20037;-61
2022/02/01 06:12:48;;;;;;;3.10;1.20;;;;;;;20.77;35.41;101475.19;5025066;28;20055;-61
2022/02/01 06:15:17;;;;;;;6.78;1.98;;;;;;;20.69;35.72;101473.41;5019354;28;20046;-61
2022/02/01 06:17:43;;;;;;;4.43;1.58;;;;;;;20.62;35.81;101484.81;5015036;28;20040;-61
2022/02/01 06:20:10;;;;;;;4.85;1.75;;;;;;;20.46;36.13;101470.63;5022514;28;20041;-63
2022/02/01 06:22:36;;;;;;;4.10;1.45;;;;;;;20.48;36.06;101452.78;5017761;28;20032;-62
2022/02/01 06:25:03;;;;;;;7.00;1.65;;;;;;;20.51;36.06;101457.75;5026331;28;20038;-62
2022/02/01 06:27:29;;;;;;;4.45;1.35;;;;;;;20.62;36.01;101456.53;5018292;28;20424;-62
2022/02/01 06:29:55;;;;;;;6.63;1.42;;;;;;;20.80;35.99;101445.72;5024369;28;20064;-62
2022/02/01 06:32:21;;;;;;;6.72;1.75;;;;;;;20.97;35.55;101433.25;5017221;28;20048;-62
2022/02/01 06:34:47;;;;;;;5.00;1.42;;;;;;;21.22;35.33;101450.69;5022165;28;20037;-62
2022/02/01 06:37:12;;;;;;;4.03;1.40;;;;;;;21.44;34.87;101454.41;5015744;28;20029;-62
2022/02/01 06:39:38;;;;;;;5.88;1.98;;;;;;;21.49;34.96;101440.63;5021597;28;20087;-62
2022/02/01 06:42:05;;;;;;;4.95;1.70;;;;;;;21.34;34.79;101429.94;5025490;28;20036;-62
2022/02/01 06:44:31;;;;;;;3.72;1.40;;;;;;;21.38;34.87;101447.16;5019112;28;20072;-62
2022/02/01 06:46:56;;;;;;;5.20;1.75;;;;;;;21.25;35.04;101434.47;5023845;28;20041;-61
2022/02/01 06:49:23;;;;;;;5.15;1.55;;;;;;;21.23;35.25;101441.75;5017594;28;20079;-62
2022/02/01 06:51:48;;;;;;;6.45;1.73;;;;;;;21.13;35.34;101427.88;5020793;28;20478;-61
2022/02/01 06:54:14;;;;;;;5.68;1.80;;;;;;;21.03;35.53;101414.88;5013714;28;20163;-61
2022/02/01 06:56:40;;;;;;;5.15;1.85;;;;;;;21.01;35.81;101416.06;5022409;28;20085;-61
2022/02/01 06:59:06;;;;;;;5.30;2.05;;;;;;;21.01;35.55;101405.47;5020213;28;20532;-61
2022/02/01 07:01:32;;;;;;;6.35;2.15;;;;;;;21.08;35.39;101388.69;5014641;28;20361;-61
2022/02/01 07:03:58;;;;;;;5.90;1.88;;;;;;;21.11;35.28;101387.50;5019914;28;20116;-61
2022/02/01 07:06:25;;;;;;;4.43;1.48;;;;;;;21.10;35.31;101373.44;5019076;28;20495;-61
2022/02/01 07:08:52;;;;;;;6.45;2.58;;;;;;;21.09;35.20;101379.75;5014774;28;20502;-61
2022/02/01 07:11:19;;;;;;;6.43;1.90;;;;;;;21.10;35.02;101372.63;5012542;28;20394;-61
2022/02/01 07:13:47;;;;;;;4.15;2.15;;;;;;;21.14;35.31;101376.56;5025076;28;20895;-61
2022/02/01 07:16:13;;;;;;;6.50;2.20;;;;;;;21.22;35.42;101363.28;5033795;28;20050;-63
2022/02/01 07:18:38;;;;;;;5.00;1.60;;;;;;;21.13;35.25;101351.91;5030983;28;20520;-61
2022/02/01 07:21:05;;;;;;;3.42;1.42;;;;;;;21.12;35.34;101347.63;5013759;28;20040;-61
2022/02/01 07:23:32;;;;;;;2.67;1.25;;;;;;;21.17;35.39;101338.31;5026365;28;20041;-61
2022/02/01 07:25:58;;;;;;;6.68;1.60;;;;;;;21.19;35.15;101328.41;5017830;28;20042;-63
2022/02/01 07:28:27;;;;;;;5.10;1.90;;;;;;;21.21;35.06;101318.44;5023269;28;20037;-62
2022/02/01 07:30:53;;;;;;;5.10;1.70;;;;;;;21.17;35.24;101328.53;5019878;28;20111;-62
2022/02/01 07:33:19;;;;;;;10.07;2.60;;;;;;;21.19;35.04;101329.22;5025081;28;20124;-62
2022/02/01 07:35:47;;;;;;;5.80;1.65;;;;;;;21.15;35.29;101317.31;5020140;28;20043;-61
2022/02/01 07:38:17;;;;;;;5.30;2.22;;;;;;;21.15;35.04;101314.66;5023493;28;20049;-61
2022/02/01 07:40:43;;;;;;;4.72;2.05;;;;;;;21.13;35.26;101312.19;5024685;28;20044;-61
2022/02/01 07:43:08;;;;;;;8.40;2.00;;;;;;;21.04;35.39;101293.91;5018721;28;20475;-61
2022/02/01 07:45:35;;;;;;;6.78;1.88;;;;;;;21.03;35.39;101284.31;5028686;28;20577;-61
2022/02/01 07:48:02;;;;;;;4.13;1.42;;;;;;;20.99;35.45;101275.03;5017619;28;20087;-61
2022/02/01 07:50:28;;;;;;;7.18;1.95;;;;;;;20.99;35.40;101259.97;5023230;28;20033;-63
2022/02/01 07:52:54;;;;;;;4.47;1.60;;;;;;;21.07;35.28;101254.66;5021353;28;20050;-60
2022/02/01 07:55:20;;;;;;;5.15;1.73;;;;;;;21.05;35.27;101238.13;5024698;28;20041;-61
2022/02/01 07:57:45;;;;;;;6.22;2.10;;;;;;;21.10;35.17;101233.09;5017329;28;20045;-61
2022/02/01 08:00:12;;;;;;;7.03;2.05;;;;;;;21.20;35.08;101232.88;5021223;28;20037;-61
2022/02/01 08:02:37;;;;;;;7.65;2.42;;;;;;;21.13;35.17;101224.78;5021756;28;20077;-61
2022/02/01 08:05:04;;;;;;;5.47;2.10;;;;;;;21.07;35.15;101209.63;5020742;28;20041;-61
2022/02/01 08:07:30;;;;;;;4.38;2.38;;;;;;;21.11;35.27;101205.63;5033364;28;20044;-61
2022/02/01 08:09:59;;;;;;;5.63;2.13;;;;;;;21.15;35.26;101199.97;5017998;28;20056;-61
2022/02/01 08:20:27;;;;;;;4.95;2.25;;;;;;;21.00;35.33;101179.56;5020092;28;20052;-63
2022/02/01 08:25:23;;;;;;;6.65;2.67;;;;;;;21.02;35.35;101160.88;5020305;28;20041;-63
2022/02/01 08:27:50;;;;;;;5.07;2.40;;;;;;;21.00;35.38;101150.44;5021545;28;20041;-61
2022/02/01 08:30:17;;;;;;;8.15;2.20;;;;;;;21.13;35.37;101148.00;5012522;28;20698;-61
2022/02/01 08:32:43;;;;;;;5.65;2.20;;;;;;;21.30;35.14;101143.38;5021810;28;20048;-61
2022/02/01 08:35:09;;;;;;;6.32;2.30;;;;;;;21.28;35.23;101116.25;5015087;28;20038;-61
2022/02/01 08:37:34;;;;;;;5.15;1.98;;;;;;;21.31;35.15;101115.91;5024950;28;20414;-61
2022/02/01 08:40:00;;;;;;;6.80;2.70;;;;;;;21.33;35.07;101107.75;5025287;28;20109;-61
2022/02/01 08:42:26;;;;;;;6.63;2.42;;;;;;;21.22;35.29;101098.44;5017512;28;20479;-61
2022/02/01 08:44:53;;;;;;;4.35;1.92;;;;;;;21.15;35.29;101089.56;5018446;28;20041;-61
2022/02/01 08:47:18;;;;;;;4.30;1.92;;;;;;;21.27;35.35;101080.19;5021268;28;20502;-62
2022/02/01 08:49:44;;;;;;;7.65;2.15;;;;;;;21.30;35.25;101082.47;5021471;28;20151;-60
2022/02/01 08:52:14;;;;;;;7.80;2.50;;;;;;;21.33;35.26;101081.28;5021945;28;20497;-60
2022/02/01 08:54:40;;;;;;;5.68;2.20;;;;;;;21.33;35.26;101074.16;5023377;28;20049;-60
2022/02/01 08:57:23;;;;;;;6.32;2.08;;;;;;;21.31;35.28;101067.41;5018748;28;20910;-60
2022/02/01 09:00:07;;;;;;;5.63;1.98;;;;;;;21.26;35.16;101057.38;5022379;28;20041;-60
2022/02/01 09:02:33;;;;;;;4.57;2.10;;;;;;;21.22;35.35;101061.34;5020464;28;20045;-60
2022/02/01 09:04:59;;;;;;;5.75;2.17;;;;;;;21.17;35.48;101052.28;5023147;28;20033;-61
2022/02/01 09:07:25;;;;;;;5.80;2.10;;;;;;;21.12;35.53;101042.25;5022016;28;20041;-60
2022/02/01 09:09:50;;;;;;;3.33;1.67;;;;;;;21.20;35.36;101050.13;5021629;28;20106;-60
2022/02/01 09:12:18;;;;;;;3.10;1.80;;;;;;;21.24;35.35;101056.72;5019535;28;20041;-60
2022/02/01 09:14:47;;;;;;;4.05;1.80;;;;;;;21.16;35.32;101045.34;5017328;28;20129;-59
2022/02/01 09:17:16;;;;;;;3.75;1.98;;;;;;;21.28;35.33;101047.41;5018064;28;20033;-59
2022/02/01 09:19:42;;;;;;;3.92;2.00;;;;;;;21.33;34.82;101037.06;5023722;28;20065;-60
2022/02/01 09:22:09;;;;;;;5.13;2.10;;;;;;;21.28;34.97;101028.84;5019984;28;20108;-59
2022/02/01 09:24:35;;;;;;;7.07;2.15;;;;;;;21.28;35.00;101025.38;5025151;28;20048;-59
2022/02/01 09:27:01;;;;;;;5.00;1.92;;;;;;;21.23;35.20;101019.81;5019148;28;20033;-59
2022/02/01 09:29:27;;;;;;;4.75;2.10;;;;;;;21.21;35.34;101011.22;5027541;28;20071;-60
2022/02/01 09:31:54;;;;;;;4.60;1.98;;;;;;;21.16;35.24;101008.28;5015679;28;20047;-59
2022/02/01 09:34:21;;;;;;;5.05;1.90;;;;;;;21.12;35.47;100999.88;5023694;28;20053;-60
2022/02/01 09:36:48;;;;;;;4.45;1.77;;;;;;;21.05;35.54;101004.28;5014683;28;20045;-59
2022/02/01 09:39:14;;;;;;;5.50;1.92;;;;;;;21.02;35.45;100989.59;5016715;28;20045;-59
2022/02/01 09:41:40;;;;;;;5.40;2.00;;;;;;;21.05;35.55;100991.88;5016950;28;20697;-60
2022/02/01 09:44:07;;;;;;;3.17;1.70;;;;;;;21.15;35.42;100990.75;5019718;28;20037;-60
2022/02/01 09:46:35;;;;;;;4.28;1.70;;;;;;;21.03;35.21;100967.41;5012060;28;20914;-59
2022/02/01 09:49:02;;;;;;;4.07;1.85;;;;;;;21.13;35.33;100981.16;5034812;28;20128;-60
2022/02/01 09:51:27;;;;;;;4.63;1.92;;;;;;;21.18;35.36;100983.25;5011806;28;20034;-60
2022/02/01 09:53:53;;;;;;;3.25;2.10;;;;;;;21.09;35.36;100979.91;5022488;28;20341;-60
2022/02/01 09:56:19;;;;;;;3.13;1.65;;;;;;;21.20;35.44;100977.81;5018207;28;20053;-60
2022/02/01 09:58:48;;;;;;;3.65;1.75;;;;;;;21.23;35.12;100962.34;5021577;28;20433;-59
2022/02/01 10:01:19;;;;;;;3.20;1.63;;;;;;;21.30;35.24;100957.16;5023808;28;20674;-60
2022/02/01 10:03:48;;;;;;;3.75;1.80;;;;;;;21.27;35.10;100942.47;5014842;28;20041;-60
2022/02/01 10:06:15;;;;;;;2.55;1.60;;;;;;;21.28;35.25;100946.75;5025704;28;20040;-62
2022/02/01 10:08:46;;;;;;;2.70;1.50;;;;;;;21.20;35.33;100930.94;5017954;28;20138;-60
2022/02/01 10:11:13;;;;;;;2.15;1.60;;;;;;;21.26;35.15;100943.47;5019261;28;20124;-60
2022/02/01 10:13:41;;;;;;;5.85;1.73;;;;;;;21.25;35.15;100947.13;5018957;28;20072;-61
2022/02/01 10:16:25;;;;;;;2.85;1.90;;;;;;;21.17;35.35;100939.25;5015121;28;20047;-60
2022/02/01 10:18:50;;;;;;;2.80;1.50;;;;;;;21.14;35.28;100934.31;5015383;28;20037;-60
2022/02/01 10:21:16;;;;;;;2.28;1.35;;;;;;;21.10;35.42;100936.53;5019908;28;20844;-60
2022/02/01 10:23:43;;;;;;;1.42;1.23;;;;;;;21.18;35.24;100932.13;5016505;28;20091;-60
2022/02/01 10:26:17;;;;;;;4.93;1.92;;;;;;;21.25;35.36;100927.78;5021093;28;20087;-60
2022/02/01 10:31:33;;;;;;;2.97;1.50;;;;;;;21.47;35.49;100929.44;4993711;28;20056;-78
2022/02/01 10:34:26;;;;;;;5.25;1.98;;;;;;;21.56;35.61;100914.25;5030605;28;20045;-70
2022/02/01 10:36:52;;;;;;;3.67;1.30;;;;;;;21.55;35.62;100904.66;5028783;28;20083;-74
2022/02/01 10:39:21;;;;;;;2.13;1.27;;;;;;;21.61;35.83;100906.53;5018373;28;20048;-72
2022/02/01 10:42:04;;;;;;;2.97;1.30;;;;;;;21.76;35.36;100898.53;5018438;28;20042;-72
2022/02/01 10:44:57;;;;;;;1.42;1.13;;;;;;;21.61;35.77;100895.94;5012466;28;20043;-70
2022/02/01 10:47:41;;;;;;;3.55;1.40;;;;;;;21.67;35.72;100884.56;4994316;28;20107;-69
2022/02/01 10:50:10;;;;;;;3.60;1.70;;;;;;;21.70;35.97;100884.19;5003869;28;20045;-75
2022/02/01 10:52:40;;;;;;;1.50;1.17;;;;;;;21.77;35.80;100877.13;5013114;28;20033;-75
2022/02/01 10:55:08;;;;;;;2.33;1.60;;;;;;;21.61;35.87;100870.28;5003753;28;20125;-71
2022/02/01 10:57:34;;;;;;;2.05;1.50;;;;;;;21.68;35.97;100868.47;5015616;28;20498;-72
2022/02/01 11:00:01;;;;;;;1.85;1.20;;;;;;;21.73;36.01;100867.13;5008849;28;20045;-71
2022/02/01 11:02:28;;;;;;;3.03;1.42;;;;;;;21.66;35.87;100851.97;5005707;28;20029;-72
2022/02/01 11:04:55;;;;;;;1.92;1.30;;;;;;;21.73;35.79;100859.16;5031935;28;20174;-67
2022/02/01 11:07:21;;;;;;;1.33;1.00;;;;;;;21.61;36.01;100858.84;5000994;28;20033;-71
2022/02/01 11:09:47;;;;;;;1.70;1.08;;;;;;;21.69;36.05;100853.41;5017407;28;20053;-70
2022/02/01 11:12:13;;;;;;;2.25;1.35;;;;;;;21.71;36.18;100848.72;4996893;28;20045;-73
2022/02/01 11:14:46;;;;;;;1.55;1.05;;;;;;;21.68;36.18;100843.81;5015287;28;20081;-67
2022/02/01 11:17:13;;;;;;;2.17;1.20;;;;;;;21.33;36.90;100849.00;5009514;28;20029;-63
2022/02/01 11:19:51;;;;;;;2.75;1.20;;;;;;;21.37;36.60;100847.63;5016415;28;20364;-73
2022/02/01 11:22:33;;;;;;;3.53;1.52;;;;;;;21.60;36.51;100834.19;5002441;28;20486;-71
2022/02/01 11:25:09;;;;;;;1.92;1.02;;;;;;;21.52;36.46;100813.09;5013590;28;20042;-72
2022/02/01 11:27:59;;;;;;;3.50;1.30;;;;;;;21.58;36.47;100822.97;5009709;28;20111;-73
2022/02/01 11:30:35;;;;;;;2.38;1.13;;;;;;;21.55;36.74;100810.09;4990496;28;20237;-71
2022/02/01 11:33:01;;;;;;;1.13;0.88;;;;;;;21.58;36.72;100804.41;5005407;28;20045;-70
2022/02/01 11:35:29;;;;;;;2.25;1.48;;;;;;;21.64;36.70;100798.31;5030800;28;20034;-73
2022/02/01 11:38:02;;;;;;;2.00;1.10;;;;;;;21.60;36.65;100796.25;4993543;28;20041;-68
2022/02/01 11:40:35;;;;;;;1.42;1.33;;;;;;;21.62;36.56;100792.41;5014414;28;20044;-73
2022/02/01 11:43:05;;;;;;;2.63;1.40;;;;;;;21.60;36.90;100789.13;4998626;28;21089;-74
2022/02/01 11:45:34;;;;;;;2.67;1.25;;;;;;;21.66;36.51;100783.06;5018400;28;20376;-72
2022/02/01 11:48:03;;;;;;;1.10;1.00;;;;;;;21.71;36.45;100779.81;4995691;28;20028;-73
2022/02/01 11:50:29;;;;;;;0.98;0.90;;;;;;;21.69;36.63;100773.91;5014850;28;20053;-73
2022/02/01 11:52:57;;;;;;;1.65;1.00;;;;;;;21.62;36.70;100765.91;5001740;28;20062;-74
2022/02/01 11:55:30;;;;;;;2.67;1.00;;;;;;;21.68;36.36;100770.44;5015718;28;20042;-67
2022/02/01 11:58:04;;;;;;;1.55;0.95;;;;;;;21.54;36.97;100770.50;4987628;28;20461;-63
2022/02/01 12:00:38;;;;;;;1.77;0.98;;;;;;;21.53;36.80;100768.88;5022466;28;20581;-62
2022/02/01 12:03:04;;;;;;;1.98;1.40;;;;;;;21.47;36.86;100783.72;4991360;28;20064;-62
2022/02/01 12:05:34;;;;;;;1.98;1.20;;;;;;;21.47;36.64;100781.06;5022049;28;20044;-62
2022/02/01 12:08:10;;;;;;;2.90;1.17;;;;;;;21.36;36.89;100786.88;4989368;28;20594;-62
2022/02/01 12:10:50;;;;;;;2.70;1.45;;;;;;;21.31;36.64;100766.25;5022430;28;20233;-62
2022/02/01 12:13:21;;;;;;;2.90;1.45;;;;;;;21.46;36.17;100771.50;4993740;28;20139;-64
2022/02/01 12:15:48;;;;;;;2.47;1.08;;;;;;;21.51;36.46;100760.31;5030751;28;20449;-68
2022/02/01 12:18:33;;;;;;;5.10;1.20;;;;;;;21.62;36.49;100755.31;4993456;28;20033;-61
2022/02/01 12:21:15;;;;;;;1.83;1.02;;;;;;;21.47;36.90;100743.97;5027489;28;20051;-61
2022/02/01 12:23:50;;;;;;;1.13;1.02;;;;;;;21.48;36.61;100739.50;4996582;28;20045;-63
2022/02/01 12:26:27;;;;;;;2.08;1.40;;;;;;;21.42;36.75;100738.44;5041003;28;20717;-64
2022/02/01 12:28:56;;;;;;;2.10;1.33;;;;;;;21.47;36.55;100740.50;5004984;28;20326;-62
2022/02/01 12:31:27;;;;;;;2.20;1.13;;;;;;;21.36;36.56;100747.13;5013101;28;20439;-61
2022/02/01 12:33:56;;;;;;;4.53;1.42;;;;;;;21.31;36.81;100746.91;5001867;28;20034;-62
2022/02/01 12:36:29;;;;;;;2.47;1.30;;;;;;;21.32;36.87;100741.41;5023589;28;20644;-62
2022/02/01 12:39:19;;;;;;;1.83;1.00;;;;;;;21.29;36.79;100749.75;4991487;28;20123;-62
2022/02/01 12:42:01;;;;;;;2.05;1.35;;;;;;;21.36;36.75;100745.34;5021632;28;20100;-61
2022/02/01 12:47:00;;;;;;;3.97;1.45;;;;;;;21.29;36.63;100739.16;5016927;28;20529;-62
2022/02/01 12:49:41;;;;;;;5.90;1.60;;;;;;;21.28;36.76;100726.91;5004906;28;20535;-62
2022/02/01 12:52:23;;;;;;;2.17;1.48;;;;;;;21.23;36.85;100745.19;5009852;28;20584;-62
2022/02/01 12:55:01;;;;;;;2.13;1.27;;;;;;;21.19;36.85;100729.88;5020297;28;20041;-62
2022/02/01 12:57:28;;;;;;;2.45;1.50;;;;;;;21.21;37.05;100712.78;4998426;28;20661;-62
2022/02/01 13:00:05;;;;;;;3.03;1.58;;;;;;;21.27;36.89;100729.75;5032639;28;20033;-68
2022/02/01 13:02:33;;;;;;;4.18;1.38;;;;;;;21.49;36.62;100722.59;5020375;28;20695;-70
2022/02/01 13:05:00;;;;;;;4.43;1.45;;;;;;;21.57;36.60;100733.88;5020126;28;20041;-74
2022/02/01 13:07:43;;;;;;;3.53;1.50;;;;;;;21.60;36.61;100722.06;4981969;28;21322;-71
2022/02/01 13:15:40;;;;;;;3.92;1.45;;;;;;;21.64;36.86;100715.38;5018150;28;20084;-68